Time;durP1;ratioP1;P1;durP2;ratioP2;P2;SDS_P1;SDS_P2;PMS_P1;PMS_P2;Temp;Humidity;BMP_temperature;BMP_pressure;BME280_temperature;BME280_humidity;BME280_pressure;Samples;Min_cycle;Max_cycle;Signal;HPM_P1;HPM_P2
2023/09/26 00:01:38;;;;;;;10.97;8.40;;;9.20;52.60;;;;;;5020796;28;46463;-79
2023/09/26 00:04:04;;;;;;;12.10;9.10;;;9.20;52.70;;;;;;5004385;28;46125;-81
2023/09/26 00:06:30;;;;;;;11.13;8.10;;;9.10;53.90;;;;;;5021985;28;46341;-80
2023/09/26 00:08:56;;;;;;;11.90;9.10;;;9.10;53.00;;;;;;5022719;28;46440;-81
2023/09/26 00:11:22;;;;;;;12.80;8.10;;;9.10;52.90;;;;;;5023616;28;46644;-79
2023/09/26 00:13:49;;;;;;;11.23;8.87;;;9.10;53.10;;;;;;5006708;28;46488;-80
2023/09/26 00:16:15;;;;;;;14.47;9.03;;;9.10;53.10;;;;;;5024535;28;46372;-79
2023/09/26 00:18:42;;;;;;;12.93;9.37;;;9.10;52.90;;;;;;5001482;28;45914;-79
2023/09/26 00:21:08;;;;;;;12.30;8.50;;;9.10;52.90;;;;;;5018810;28;46420;-79
2023/09/26 00:23:35;;;;;;;14.10;9.63;;;9.10;52.80;;;;;;5012739;28;47111;-78
2023/09/26 00:26:04;;;;;;;14.73;9.37;;;9.20;53.00;;;;;;5018665;28;46473;-78
2023/09/26 00:28:29;;;;;;;15.43;9.03;;;9.10;52.80;;;;;;5018926;28;46647;-78
2023/09/26 00:31:03;;;;;;;14.40;8.30;;;9.20;52.80;;;;;;5008911;28;48208;-79
2023/09/26 00:33:29;;;;;;;10.60;8.37;;;9.20;52.90;;;;;;5000001;28;46550;-79
2023/09/26 00:35:54;;;;;;;11.83;7.97;;;9.20;52.70;;;;;;5019905;28;46442;-79
2023/09/26 00:38:20;;;;;;;10.90;8.03;;;9.10;52.80;;;;;;5021799;28;46533;-81
2023/09/26 00:40:45;;;;;;;11.83;7.37;;;9.10;53.10;;;;;;5021191;28;47191;-77
2023/09/26 00:43:21;;;;;;;11.30;6.90;;;9.00;53.20;;;;;;5001263;28;46492;-78
2023/09/26 00:45:52;;;;;;;12.47;7.10;;;9.00;53.20;;;;;;5010053;28;46429;-79
2023/09/26 00:48:18;;;;;;;12.37;7.47;;;9.00;53.40;;;;;;4994216;28;46405;-78
2023/09/26 00:50:45;;;;;;;9.70;7.00;;;8.90;53.40;;;;;;5017998;28;46492;-79
2023/09/26 00:53:10;;;;;;;12.90;7.40;;;8.90;53.70;;;;;;5006195;28;46408;-79
2023/09/26 00:55:37;;;;;;;10.10;6.73;;;8.80;53.90;;;;;;5020908;28;46518;-79
2023/09/26 00:58:03;;;;;;;12.63;7.60;;;8.80;53.80;;;;;;5001379;28;47105;-79
2023/09/26 01:00:29;;;;;;;9.60;6.97;;;8.80;53.90;;;;;;5018695;28;46408;-79
2023/09/26 01:02:54;;;;;;;8.87;6.63;;;8.70;53.90;;;;;;5000604;28;46491;-78
2023/09/26 01:05:20;;;;;;;11.90;7.77;;;8.70;53.90;;;;;;5021059;28;46450;-79
2023/09/26 01:07:46;;;;;;;10.90;7.50;;;8.70;53.90;;;;;;5002031;28;46849;-78
2023/09/26 01:10:12;;;;;;;11.10;7.53;;;8.70;54.00;;;;;;5017618;28;46757;-78
2023/09/26 01:12:38;;;;;;;12.43;7.83;;;8.60;53.90;;;;;;5018812;28;46655;-78
2023/09/26 01:15:06;;;;;;;15.00;7.10;;;8.70;53.90;;;;;;5019188;28;46552;-78
2023/09/26 01:17:32;;;;;;;11.10;7.03;;;8.60;53.90;;;;;;5018592;28;46497;-78
2023/09/26 01:19:59;;;;;;;15.53;7.27;;;8.60;54.00;;;;;;5001564;28;48561;-78
2023/09/26 01:22:27;;;;;;;10.40;7.00;;;8.70;54.00;;;;;;5001284;28;45861;-79
2023/09/26 01:24:55;;;;;;;11.80;7.70;;;8.70;53.80;;;;;;5018286;28;46370;-78
2023/09/26 01:27:20;;;;;;;10.20;7.83;;;8.70;53.70;;;;;;5019017;28;46392;-81
2023/09/26 01:29:47;;;;;;;13.30;7.57;;;8.70;53.70;;;;;;5019415;28;46491;-78
2023/09/26 01:32:13;;;;;;;10.73;7.63;;;8.70;53.50;;;;;;5020213;28;46396;-80
2023/09/26 01:34:38;;;;;;;10.10;7.17;;;8.70;53.40;;;;;;5020614;28;46461;-80
2023/09/26 01:37:04;;;;;;;13.20;8.00;;;8.80;53.30;;;;;;5020680;28;46549;-79
2023/09/26 01:39:30;;;;;;;12.53;7.93;;;8.80;53.20;;;;;;5020556;28;47217;-79
2023/09/26 01:41:56;;;;;;;11.90;7.53;;;8.80;53.20;;;;;;5020649;28;46504;-78
2023/09/26 01:44:21;;;;;;;12.73;6.70;;;8.80;53.30;;;;;;5016585;28;46464;-79
2023/09/26 01:46:47;;;;;;;10.73;7.60;;;8.70;53.30;;;;;;4999525;28;47281;-79
2023/09/26 01:49:13;;;;;;;11.40;6.33;;;8.70;53.40;;;;;;5017411;28;46731;-78
2023/09/26 01:51:39;;;;;;;10.37;6.30;;;8.60;53.30;;;;;;5017552;28;47787;-79
2023/09/26 01:54:04;;;;;;;8.50;5.97;;;8.60;53.40;;;;;;5018113;28;46556;-79
2023/09/26 01:56:33;;;;;;;9.00;5.43;;;8.50;53.50;;;;;;5017958;28;46488;-75
2023/09/26 01:59:00;;;;;;;13.03;6.43;;;8.40;53.70;;;;;;5021162;28;46496;-79
2023/09/26 02:01:25;;;;;;;8.67;5.90;;;8.30;53.90;;;;;;5022783;28;46502;-79
2023/09/26 02:03:51;;;;;;;9.10;6.47;;;8.30;53.90;;;;;;5020422;28;46460;-80
2023/09/26 02:06:17;;;;;;;9.17;5.90;;;8.30;53.90;;;;;;5023032;28;46899;-79
2023/09/26 02:08:42;;;;;;;8.97;6.33;;;8.20;54.10;;;;;;5021140;28;46814;-79
2023/09/26 02:11:08;;;;;;;9.87;7.37;;;8.20;54.20;;;;;;5021558;28;46740;-79
2023/09/26 02:13:33;;;;;;;13.97;7.10;;;8.20;54.20;;;;;;5003254;28;46385;-78
2023/09/26 02:15:59;;;;;;;12.43;6.50;;;8.20;54.30;;;;;;5021129;28;46289;-79
2023/09/26 02:18:27;;;;;;;10.50;6.77;;;8.20;54.30;;;;;;5020392;28;47143;-78
2023/09/26 02:20:53;;;;;;;10.40;7.10;;;8.20;54.20;;;;;;5019901;28;46520;-79
2023/09/26 02:23:19;;;;;;;9.90;7.67;;;8.20;54.00;;;;;;5003226;28;46283;-80
2023/09/26 02:25:52;;;;;;;10.67;8.10;;;8.20;54.00;;;;;;5021088;28;46485;-79
2023/09/26 02:28:19;;;;;;;12.17;8.37;;;8.30;53.80;;;;;;5021768;28;46472;-79
2023/09/26 02:30:45;;;;;;;10.30;7.67;;;8.30;53.50;;;;;;5020027;28;45880;-79
2023/09/26 02:33:11;;;;;;;13.90;8.13;;;8.30;53.50;;;;;;5009059;28;46519;-79
2023/09/26 02:35:37;;;;;;;17.97;8.97;;;8.40;53.60;;;;;;5026525;28;46928;-80
2023/09/26 02:38:02;;;;;;;14.40;8.60;;;8.50;53.60;;;;;;5023324;28;46767;-79
2023/09/26 02:40:28;;;;;;;13.10;8.70;;;8.40;53.40;;;;;;5019107;28;46487;-79
2023/09/26 02:42:54;;;;;;;11.73;7.90;;;8.40;53.40;;;;;;5018969;28;46378;-80
2023/09/26 02:45:19;;;;;;;12.07;7.63;;;8.40;53.50;;;;;;5022120;28;45808;-80
2023/09/26 02:47:45;;;;;;;12.53;7.53;;;8.40;53.60;;;;;;5022936;28;46369;-78
2023/09/26 02:50:11;;;;;;;9.47;7.33;;;8.40;53.70;;;;;;5022501;28;46449;-77
2023/09/26 02:52:40;;;;;;;15.07;7.53;;;8.40;53.70;;;;;;5020253;28;45865;-78
2023/09/26 02:55:07;;;;;;;11.50;7.20;;;8.40;53.60;;;;;;5004957;28;46471;-78
2023/09/26 02:57:36;;;;;;;10.63;7.13;;;8.40;53.70;;;;;;5021257;28;47198;-78
2023/09/26 03:00:12;;;;;;;15.10;10.30;;;8.40;53.70;;;;;;5021884;28;46437;-79
2023/09/26 03:02:38;;;;;;;13.03;9.27;;;8.40;53.70;;;;;;5021667;28;46532;-78
2023/09/26 03:05:04;;;;;;;12.90;8.03;;;8.50;53.80;;;;;;5002840;28;46381;-78
2023/09/26 03:07:29;;;;;;;11.23;7.50;;;8.40;53.70;;;;;;5020264;28;46508;-78
2023/09/26 03:09:55;;;;;;;15.23;8.13;;;8.40;53.80;;;;;;5018322;28;46636;-79
2023/09/26 03:12:21;;;;;;;9.90;6.17;;;8.40;54.00;;;;;;5020128;28;46670;-79
2023/09/26 03:14:46;;;;;;;12.53;7.33;;;8.30;54.20;;;;;;5005997;28;46607;-79
2023/09/26 03:17:12;;;;;;;21.43;7.20;;;8.20;54.40;;;;;;5019875;28;46368;-78
2023/09/26 03:19:37;;;;;;;9.83;7.37;;;8.20;54.50;;;;;;5002039;28;46755;-75
2023/09/26 03:22:03;;;;;;;13.67;6.87;;;8.10;54.60;;;;;;5001872;28;46791;-79
2023/09/26 03:24:28;;;;;;;11.50;7.30;;;8.10;54.70;;;;;;5020557;28;46402;-79
2023/09/26 03:26:54;;;;;;;13.10;6.77;;;8.10;54.70;;;;;;5021051;28;46450;-79
2023/09/26 03:29:19;;;;;;;10.93;7.03;;;8.00;54.80;;;;;;5021378;28;46443;-79
2023/09/26 03:31:45;;;;;;;13.60;7.77;;;8.00;54.80;;;;;;5020300;28;46369;-78
2023/09/26 03:34:11;;;;;;;12.90;7.87;;;8.00;54.90;;;;;;5021368;28;46480;-78
2023/09/26 03:36:37;;;;;;;13.63;7.77;;;8.00;55.00;;;;;;5020772;28;47280;-78
2023/09/26 03:39:03;;;;;;;10.43;7.70;;;8.00;55.00;;;;;;5019433;28;46524;-78
2023/09/26 03:41:29;;;;;;;11.47;7.63;;;8.00;54.90;;;;;;5002115;28;46680;-78
2023/09/26 03:43:55;;;;;;;11.80;7.23;;;8.00;56.00;;;;;;5021137;28;46848;-79
2023/09/26 03:46:20;;;;;;;11.00;7.10;;;8.00;54.70;;;;;;5022973;28;46629;-79
2023/09/26 03:48:49;;;;;;;13.00;8.07;;;8.00;54.70;;;;;;5023075;28;46563;-79
2023/09/26 03:51:15;;;;;;;9.40;7.43;;;8.00;54.60;;;;;;5023180;28;46617;-80
2023/09/26 03:53:41;;;;;;;9.67;6.90;;;8.00;54.60;;;;;;5004379;28;47867;-79
2023/09/26 03:56:08;;;;;;;14.40;7.20;;;8.00;54.90;;;;;;5021387;28;46868;-80
2023/09/26 03:58:34;;;;;;;13.03;5.87;;;7.90;54.90;;;;;;5021097;28;46428;-80
2023/09/26 04:01:15;;;;;;;10.67;6.83;;;7.90;55.10;;;;;;5021948;28;46774;-79
2023/09/26 04:03:44;;;;;;;13.60;7.07;;;7.80;55.30;;;;;;5021170;28;46441;-79
2023/09/26 04:06:09;;;;;;;13.47;7.43;;;7.80;55.20;;;;;;5020405;28;46499;-79
2023/09/26 04:08:35;;;;;;;17.70;7.70;;;7.80;55.40;;;;;;5024671;28;46480;-79
2023/09/26 04:11:01;;;;;;;11.10;6.90;;;7.80;55.30;;;;;;5022384;28;46743;-79
2023/09/26 04:13:26;;;;;;;10.47;6.97;;;7.80;55.30;;;;;;5023715;28;46530;-79
2023/09/26 04:15:52;;;;;;;11.30;7.90;;;7.80;55.10;;;;;;5012860;28;49626;-80
2023/09/26 04:18:18;;;;;;;11.10;7.77;;;7.80;55.00;;;;;;5009614;28;46792;-79
2023/09/26 04:20:44;;;;;;;13.87;8.20;;;7.80;54.90;;;;;;5025377;28;46937;-76
2023/09/26 04:23:10;;;;;;;12.60;7.00;;;7.80;54.70;;;;;;5024381;28;46500;-79
2023/09/26 04:25:36;;;;;;;12.90;8.40;;;7.90;54.70;;;;;;5025464;28;46229;-78
2023/09/26 04:28:03;;;;;;;9.93;6.70;;;7.90;54.70;;;;;;5018627;28;46422;-78
2023/09/26 04:30:29;;;;;;;12.00;7.50;;;7.90;54.80;;;;;;5019376;28;46589;-79
2023/09/26 04:32:54;;;;;;;10.20;6.87;;;7.90;54.80;;;;;;5009651;28;47156;-78
2023/09/26 04:35:20;;;;;;;14.40;7.50;;;7.90;55.00;;;;;;5019012;28;47297;-78
2023/09/26 04:37:45;;;;;;;11.40;7.27;;;7.80;54.90;;;;;;5019641;28;46475;-79
2023/09/26 04:40:11;;;;;;;9.87;6.60;;;7.80;55.10;;;;;;5001899;28;45860;-79
2023/09/26 04:42:48;;;;;;;10.13;6.30;;;7.80;55.10;;;;;;5019550;28;46472;-79
2023/09/26 04:45:13;;;;;;;9.33;6.80;;;7.70;55.20;;;;;;5021420;28;46862;-77
2023/09/26 04:47:39;;;;;;;9.00;7.37;;;7.70;55.30;;;;;;5020250;28;46958;-78
2023/09/26 04:50:06;;;;;;;8.10;5.93;;;7.60;55.30;;;;;;5019360;28;46743;-78
2023/09/26 04:52:32;;;;;;;9.07;6.70;;;7.60;55.40;;;;;;5003910;28;46528;-78
2023/09/26 04:54:57;;;;;;;10.90;6.50;;;7.60;55.50;;;;;;5020574;28;46452;-79
2023/09/26 04:57:23;;;;;;;10.33;7.47;;;7.50;55.60;;;;;;5002258;28;46761;-79
2023/09/26 04:59:48;;;;;;;10.73;6.40;;;7.60;55.60;;;;;;5001865;28;45941;-79
2023/09/26 05:02:14;;;;;;;13.53;7.77;;;7.60;55.50;;;;;;5019089;28;46712;-78
2023/09/26 05:04:41;;;;;;;12.93;8.87;;;7.60;55.30;;;;;;5002181;28;48414;-78
2023/09/26 05:07:09;;;;;;;9.97;7.10;;;7.70;55.20;;;;;;5019084;28;46810;-79
2023/09/26 05:09:38;;;;;;;9.60;7.87;;;7.70;55.00;;;;;;5019542;28;46780;-79
2023/09/26 05:12:03;;;;;;;15.10;8.17;;;7.80;55.00;;;;;;5018711;28;46346;-79
2023/09/26 05:14:29;;;;;;;12.63;7.30;;;7.80;55.00;;;;;;5018766;28;46435;-79
2023/09/26 05:16:55;;;;;;;12.63;7.87;;;7.90;55.00;;;;;;5018672;28;46416;-80
2023/09/26 05:19:20;;;;;;;15.23;8.33;;;7.90;54.90;;;;;;5018916;28;46334;-79
2023/09/26 05:21:46;;;;;;;10.83;7.83;;;7.90;54.90;;;;;;5019946;28;46660;-78
2023/09/26 05:24:11;;;;;;;12.27;7.80;;;8.00;55.00;;;;;;5018935;28;46451;-80
2023/09/26 05:26:37;;;;;;;9.23;6.37;;;8.00;54.90;;;;;;5019237;28;46468;-78
2023/09/26 05:29:03;;;;;;;11.60;7.40;;;8.10;55.00;;;;;;5023678;28;45840;-78
2023/09/26 05:31:30;;;;;;;8.00;6.50;;;8.20;54.80;;;;;;5019782;28;46491;-79
2023/09/26 05:33:56;;;;;;;11.63;6.80;;;8.20;54.70;;;;;;5011344;28;49487;-79
2023/09/26 05:36:22;;;;;;;9.57;7.03;;;8.30;54.70;;;;;;5023140;28;46135;-79
2023/09/26 05:38:48;;;;;;;10.60;6.13;;;8.40;54.60;;;;;;5024143;28;46540;-81
2023/09/26 05:41:13;;;;;;;8.00;5.90;;;8.50;54.40;;;;;;5022268;28;46551;-79
2023/09/26 05:43:39;;;;;;;11.47;6.60;;;8.50;54.20;;;;;;5005905;28;48115;-79
2023/09/26 05:46:05;;;;;;;12.67;6.70;;;8.60;54.10;;;;;;5004798;28;46659;-79
2023/09/26 05:48:30;;;;;;;16.40;6.60;;;8.70;54.00;;;;;;5023918;28;46519;-81
2023/09/26 05:51:00;;;;;;;8.70;5.70;;;8.80;53.80;;;;;;5024242;28;46748;-78
2023/09/26 05:53:26;;;;;;;9.00;6.27;;;8.90;53.70;;;;;;5006481;28;48226;-79
2023/09/26 05:55:52;;;;;;;9.77;5.80;;;9.00;53.50;;;;;;5007823;28;46617;-80
2023/09/26 05:58:21;;;;;;;8.97;5.83;;;9.00;53.40;;;;;;5026747;28;46678;-79
2023/09/26 06:00:46;;;;;;;8.13;6.13;;;9.10;53.20;;;;;;5025367;28;46535;-81
2023/09/26 06:03:14;;;;;;;6.93;5.13;;;9.10;53.00;;;;;;5026597;28;46695;-79
2023/09/26 06:05:40;;;;;;;13.93;6.03;;;9.20;53.20;;;;;;5026223;28;46562;-80
2023/09/26 06:08:06;;;;;;;9.00;5.90;;;9.30;53.30;;;;;;5029415;28;46421;-79
2023/09/26 06:10:31;;;;;;;8.63;5.10;;;9.40;53.00;;;;;;5020782;28;46705;-79
2023/09/26 06:12:57;;;;;;;6.63;4.90;;;9.50;52.80;;;;;;5005683;28;46914;-80
2023/09/26 06:15:22;;;;;;;8.33;5.33;;;9.60;52.60;;;;;;5024942;28;46413;-80
2023/09/26 06:17:48;;;;;;;12.50;5.80;;;9.60;52.30;;;;;;5022164;28;46056;-79
2023/09/26 06:20:14;;;;;;;14.63;5.90;;;9.70;52.40;;;;;;5021633;28;46492;-78
2023/09/26 06:22:39;;;;;;;14.20;5.97;;;9.90;52.50;;;;;;5022520;28;46532;-78
2023/09/26 06:25:05;;;;;;;8.10;5.67;;;10.00;51.60;;;;;;5021798;28;46802;-80
2023/09/26 06:27:35;;;;;;;10.27;6.17;;;10.20;51.80;;;;;;5022194;28;46469;-77
2023/09/26 06:30:02;;;;;;;15.30;5.77;;;10.40;51.40;;;;;;5021999;28;46661;-78
2023/09/26 06:32:27;;;;;;;17.90;6.07;;;10.60;51.20;;;;;;5003504;28;46412;-78
2023/09/26 06:34:59;;;;;;;7.47;5.13;;;10.70;50.70;;;;;;5003770;28;46476;-79
2023/09/26 06:37:25;;;;;;;16.07;5.93;;;11.00;50.40;;;;;;5003579;28;46350;-77
2023/09/26 06:39:51;;;;;;;10.50;6.13;;;11.20;50.00;;;;;;5020453;28;46916;-79
2023/09/26 06:42:17;;;;;;;6.97;5.07;;;11.30;49.70;;;;;;5019453;28;48343;-77
2023/09/26 06:44:42;;;;;;;8.83;5.73;;;11.50;49.60;;;;;;5019668;28;46422;-78
2023/09/26 06:47:08;;;;;;;11.50;6.17;;;11.60;49.60;;;;;;5022229;28;45869;-78
2023/09/26 06:49:34;;;;;;;7.47;5.40;;;11.70;49.70;;;;;;5021234;28;46545;-78
2023/09/26 06:52:00;;;;;;;9.97;6.40;;;11.80;49.90;;;;;;5020791;28;46467;-79
2023/09/26 06:54:25;;;;;;;9.47;5.97;;;12.00;49.80;;;;;;5002834;28;46440;-80
2023/09/26 06:56:51;;;;;;;6.83;4.93;;;12.10;49.80;;;;;;5020732;28;46515;-79
2023/09/26 06:59:17;;;;;;;7.37;5.17;;;12.20;49.80;;;;;;5021420;28;46342;-78
2023/09/26 07:01:43;;;;;;;6.83;4.87;;;12.30;49.80;;;;;;5003172;28;47990;-77
2023/09/26 07:04:14;;;;;;;7.40;5.80;;;12.50;49.70;;;;;;5020517;28;46463;-80
2023/09/26 07:06:40;;;;;;;7.50;5.37;;;12.70;49.40;;;;;;5020138;28;45794;-78
2023/09/26 07:09:07;;;;;;;7.30;5.23;;;12.90;48.80;;;;;;5020891;28;46895;-79
2023/09/26 07:11:33;;;;;;;16.33;5.37;;;13.10;48.70;;;;;;5019926;28;46563;-78
2023/09/26 07:13:58;;;;;;;8.53;4.73;;;13.30;48.30;;;;;;5019368;28;46711;-78
2023/09/26 07:16:24;;;;;;;7.10;5.47;;;13.40;48.20;;;;;;5020934;28;46520;-79
2023/09/26 07:18:50;;;;;;;7.57;4.90;;;13.60;48.00;;;;;;5002570;28;46516;-78
2023/09/26 07:21:16;;;;;;;11.70;4.90;;;13.70;47.80;;;;;;5020237;28;46960;-77
2023/09/26 07:23:41;;;;;;;9.50;4.63;;;13.90;47.60;;;;;;5021612;28;46356;-77
2023/09/26 07:26:20;;;;;;;6.17;4.60;;;14.10;47.10;;;;;;5004358;28;46698;-78
2023/09/26 07:28:47;;;;;;;9.70;5.07;;;14.20;46.70;;;;;;5023657;28;46371;-79
2023/09/26 07:31:14;;;;;;;7.20;4.93;;;14.30;46.80;;;;;;5023630;28;46601;-78
2023/09/26 07:33:41;;;;;;;10.17;5.33;;;14.30;46.90;;;;;;5022160;28;46397;-77
2023/09/26 07:36:08;;;;;;;9.10;5.17;;;14.20;47.20;;;;;;5023358;28;45872;-81
2023/09/26 07:38:34;;;;;;;10.40;5.60;;;14.30;47.70;;;;;;5024114;28;46558;-78
2023/09/26 07:41:00;;;;;;;8.90;5.80;;;14.30;47.90;;;;;;5022839;28;48589;-78
2023/09/26 07:43:29;;;;;;;8.90;5.63;;;14.40;48.20;;;;;;5023604;28;46725;-80
2023/09/26 07:46:06;;;;;;;13.13;6.27;;;14.60;48.00;;;;;;5020652;28;46456;-80
2023/09/26 07:48:34;;;;;;;9.30;6.17;;;14.80;47.50;;;;;;5022694;28;46471;-78
2023/09/26 07:51:00;;;;;;;8.50;6.30;;;14.80;47.50;;;;;;5004398;28;48042;-80
2023/09/26 07:53:25;;;;;;;18.90;6.93;;;15.00;47.40;;;;;;5023188;28;46453;-81
2023/09/26 07:55:51;;;;;;;15.33;6.70;;;15.20;46.60;;;;;;5020226;28;46419;-79
2023/09/26 07:58:17;;;;;;;13.47;7.63;;;15.20;46.60;;;;;;5020858;28;46651;-77
2023/09/26 08:00:43;;;;;;;11.07;7.90;;;15.30;46.60;;;;;;5021139;28;47255;-77
2023/09/26 08:03:09;;;;;;;16.37;9.60;;;15.30;46.70;;;;;;5020132;28;46939;-77
2023/09/26 08:05:35;;;;;;;25.03;10.97;;;15.40;46.70;;;;;;5020646;28;45937;-79
2023/09/26 08:08:04;;;;;;;26.10;11.60;;;15.40;46.90;;;;;;5019250;28;46484;-79
2023/09/26 08:10:30;;;;;;;21.13;11.90;;;15.50;46.80;;;;;;5021671;28;46451;-79
2023/09/26 08:12:56;;;;;;;18.80;12.33;;;15.50;46.50;;;;;;5019978;28;46592;-77
2023/09/26 08:15:21;;;;;;;23.10;12.17;;;15.70;46.50;;;;;;5020354;28;46333;-78
2023/09/26 08:17:47;;;;;;;17.97;10.30;;;15.80;46.20;;;;;;5001241;28;46173;-78
2023/09/26 08:20:13;;;;;;;20.30;12.33;;;15.90;45.70;;;;;;5019061;28;46456;-78
2023/09/26 08:22:39;;;;;;;32.27;15.97;;;16.00;45.50;;;;;;5020039;28;46513;-77
2023/09/26 08:25:05;;;;;;;21.83;13.77;;;16.00;45.60;;;;;;5019964;28;46471;-79
2023/09/26 08:27:31;;;;;;;24.07;12.27;;;16.10;45.60;;;;;;5018636;28;46578;-79
2023/09/26 08:29:59;;;;;;;24.03;13.10;;;16.30;45.40;;;;;;5019046;28;46820;-78
2023/09/26 08:32:25;;;;;;;21.57;13.03;;;16.40;45.20;;;;;;5020214;28;46459;-79
2023/09/26 08:34:51;;;;;;;24.00;12.73;;;16.40;45.20;;;;;;5020395;28;46353;-79
2023/09/26 08:37:16;;;;;;;22.77;14.00;;;16.60;44.50;;;;;;5018966;28;46509;-78
2023/09/26 08:39:43;;;;;;;21.43;12.80;;;16.90;44.90;;;;;;5002376;28;49352;-78
2023/09/26 08:42:15;;;;;;;25.13;12.87;;;17.10;44.00;;;;;;5000703;28;46505;-79
2023/09/26 08:44:41;;;;;;;23.80;14.17;;;17.10;43.60;;;;;;5019780;28;47067;-78
2023/09/26 08:47:07;;;;;;;23.80;13.40;;;17.10;43.20;;;;;;5018449;28;45925;-80
2023/09/26 08:49:34;;;;;;;22.90;12.40;;;17.20;43.00;;;;;;5017425;28;45937;-79
2023/09/26 08:51:59;;;;;;;18.83;13.63;;;17.20;42.90;;;;;;5018545;28;46548;-77
2023/09/26 08:54:25;;;;;;;26.80;14.40;;;17.10;44.20;;;;;;5017937;28;46883;-79
2023/09/26 08:56:51;;;;;;;23.17;13.47;;;17.20;42.80;;;;;;5019649;28;46263;-79
2023/09/26 08:59:19;;;;;;;18.37;13.93;;;17.40;42.60;;;;;;5000214;28;48342;-79
2023/09/26 09:01:45;;;;;;;23.77;14.07;;;17.40;42.40;;;;;;5018013;28;46658;-78
2023/09/26 09:04:11;;;;;;;23.43;13.10;;;17.60;42.30;;;;;;5018368;28;46746;-78
2023/09/26 09:06:37;;;;;;;21.53;13.40;;;17.70;41.80;;;;;;5018092;28;46791;-79
2023/09/26 09:09:10;;;;;;;28.40;14.50;;;17.70;41.40;;;;;;5018715;28;46863;-79
2023/09/26 09:11:35;;;;;;;25.00;14.87;;;17.90;41.30;;;;;;5026504;28;46511;-79
2023/09/26 09:14:01;;;;;;;26.53;15.10;;;17.90;41.10;;;;;;5018906;28;46447;-79
2023/09/26 09:16:26;;;;;;;28.83;14.53;;;18.00;41.00;;;;;;5018481;28;46404;-78
2023/09/26 09:18:58;;;;;;;24.27;15.00;;;18.00;40.70;;;;;;5017216;28;46366;-79
2023/09/26 09:21:32;;;;;;;21.70;15.23;;;18.10;40.40;;;;;;5017836;28;46519;-78
2023/09/26 09:24:07;;;;;;;24.37;16.00;;;18.20;40.30;;;;;;5001944;28;46600;-79
2023/09/26 09:26:35;;;;;;;24.17;14.83;;;18.20;40.20;;;;;;5018827;28;46449;-79
2023/09/26 09:29:19;;;;;;;20.70;14.37;;;18.40;40.20;;;;;;4994327;28;49471;-80
2023/09/26 09:31:45;;;;;;;26.53;15.53;;;18.50;39.70;;;;;;5020296;28;46481;-77
2023/09/26 09:34:11;;;;;;;20.93;15.80;;;18.60;39.40;;;;;;5004403;28;46433;-79
2023/09/26 09:36:38;;;;;;;25.67;15.47;;;18.60;39.40;;;;;;5020765;28;46479;-79
2023/09/26 09:39:08;;;;;;;24.43;17.07;;;18.60;38.90;;;;;;5021242;28;46491;-79
2023/09/26 09:41:36;;;;;;;27.30;15.90;;;18.70;39.10;;;;;;5016837;28;46449;-78
2023/09/26 09:44:02;;;;;;;23.87;16.30;;;18.80;39.00;;;;;;5017692;28;46739;-78
2023/09/26 09:46:28;;;;;;;21.83;15.43;;;18.90;38.60;;;;;;5022558;28;46423;-80
2023/09/26 09:48:58;;;;;;;25.90;16.07;;;18.90;38.60;;;;;;5018915;28;46413;-77
2023/09/26 09:51:24;;;;;;;23.73;16.33;;;18.90;38.10;;;;;;5016106;28;45928;-78
2023/09/26 09:53:54;;;;;;;21.07;16.03;;;18.80;38.40;;;;;;5018907;28;46457;-78
2023/09/26 09:56:24;;;;;;;23.37;16.63;;;18.80;38.40;;;;;;5001250;28;46662;-79
2023/09/26 09:58:51;;;;;;;20.47;14.23;;;18.90;38.70;;;;;;5018170;28;46679;-80
2023/09/26 10:01:20;;;;;;;26.03;16.43;;;18.80;38.40;;;;;;4991745;28;46628;-79
2023/09/26 10:03:51;;;;;;;23.40;16.30;;;18.90;38.60;;;;;;5018317;28;46455;-78
2023/09/26 10:06:18;;;;;;;23.03;14.43;;;18.90;38.30;;;;;;5017523;28;46471;-78
2023/09/26 10:08:45;;;;;;;22.50;15.47;;;18.90;38.10;;;;;;5002771;28;47552;-78
2023/09/26 10:11:11;;;;;;;27.60;16.13;;;19.10;38.00;;;;;;5000014;28;46909;-78
2023/09/26 10:13:37;;;;;;;24.80;15.90;;;19.20;37.50;;;;;;5016746;28;46401;-78
2023/09/26 10:16:16;;;;;;;22.10;15.50;;;19.30;37.20;;;;;;4999041;28;46680;-79
2023/09/26 10:18:43;;;;;;;22.10;16.20;;;19.40;37.00;;;;;;5019877;28;46391;-79
2023/09/26 10:21:20;;;;;;;23.83;15.13;;;19.60;36.60;;;;;;5025977;28;46448;-79
2023/09/26 10:24:04;;;;;;;25.93;15.67;;;19.80;35.90;;;;;;5022355;28;46632;-78
2023/09/26 10:26:30;;;;;;;23.17;16.13;;;19.90;35.20;;;;;;5021835;28;45760;-79
2023/09/26 10:29:00;;;;;;;27.73;15.83;;;19.90;35.40;;;;;;5021229;28;46702;-78
2023/09/26 10:31:28;;;;;;;20.60;14.63;;;19.80;35.20;;;;;;5018612;28;46716;-78
2023/09/26 10:33:54;;;;;;;19.13;13.33;;;19.90;35.00;;;;;;5020347;28;45875;-77
2023/09/26 10:36:20;;;;;;;20.57;14.47;;;19.90;34.90;;;;;;5022573;28;46489;-79
2023/09/26 10:39:00;;;;;;;20.80;14.17;;;19.90;34.90;;;;;;5004011;28;48287;-78
2023/09/26 10:41:27;;;;;;;19.23;14.77;;;20.00;34.10;;;;;;5021983;28;46565;-76
2023/09/26 10:43:53;;;;;;;21.20;12.93;;;20.10;34.10;;;;;;5020883;28;46546;-78
2023/09/26 10:46:19;;;;;;;22.77;13.57;;;20.10;34.10;;;;;;5018484;28;46558;-78
2023/09/26 10:48:44;;;;;;;22.43;14.10;;;20.20;34.20;;;;;;5019690;28;47282;-78
2023/09/26 10:51:10;;;;;;;19.87;14.00;;;20.20;34.20;;;;;;5002517;28;46434;-78
2023/09/26 10:53:36;;;;;;;21.13;13.50;;;20.10;34.10;;;;;;5020236;28;46412;-79
2023/09/26 10:56:03;;;;;;;20.80;13.20;;;20.30;33.40;;;;;;5004361;28;46525;-78
2023/09/26 10:58:32;;;;;;;19.57;12.73;;;20.30;33.10;;;;;;5020005;28;47351;-78
2023/09/26 11:00:58;;;;;;;20.10;14.73;;;20.40;34.40;;;;;;5002888;28;46451;-78
2023/09/26 11:03:24;;;;;;;21.10;14.00;;;20.40;32.80;;;;;;5021439;28;46473;-79
2023/09/26 11:05:50;;;;;;;18.93;14.30;;;20.40;32.40;;;;;;5021442;28;46523;-78
2023/09/26 11:08:16;;;;;;;21.30;13.73;;;20.40;32.30;;;;;;5005643;28;48238;-78
2023/09/26 11:10:49;;;;;;;18.77;12.27;;;20.50;32.20;;;;;;5020672;28;46759;-81
2023/09/26 11:13:15;;;;;;;20.27;14.63;;;20.60;31.60;;;;;;5021738;28;46646;-78
2023/09/26 11:15:44;;;;;;;20.27;13.30;;;20.70;31.30;;;;;;5020511;28;46862;-79
2023/09/26 11:18:13;;;;;;;17.23;12.33;;;20.80;31.20;;;;;;5020239;28;46516;-78
2023/09/26 11:20:40;;;;;;;17.33;11.00;;;20.80;31.00;;;;;;5022046;28;46439;-78
2023/09/26 11:23:06;;;;;;;21.97;11.50;;;20.90;30.90;;;;;;5003225;28;45928;-80
2023/09/26 11:25:33;;;;;;;19.03;11.53;;;20.90;30.70;;;;;;5023599;28;46457;-78
2023/09/26 11:27:58;;;;;;;15.07;9.90;;;21.10;30.50;;;;;;5022438;28;47300;-78
2023/09/26 11:30:24;;;;;;;14.23;8.87;;;21.10;30.30;;;;;;5020202;28;46664;-79
2023/09/26 11:32:54;;;;;;;15.40;10.87;;;21.10;30.00;;;;;;5003560;28;45858;-78
2023/09/26 11:35:21;;;;;;;12.97;9.33;;;21.10;29.30;;;;;;5022024;28;46368;-79
2023/09/26 11:37:54;;;;;;;16.57;9.90;;;21.10;29.30;;;;;;5019668;28;46424;-78
2023/09/26 11:40:25;;;;;;;15.90;10.60;;;21.00;29.00;;;;;;5024765;28;46393;-77
2023/09/26 11:42:53;;;;;;;12.47;9.43;;;21.00;29.00;;;;;;5024972;28;45908;-78
2023/09/26 11:45:20;;;;;;;13.83;9.07;;;21.10;28.80;;;;;;5003696;28;46519;-78
2023/09/26 11:47:46;;;;;;;18.00;9.80;;;21.10;28.80;;;;;;5012664;28;48749;-77
2023/09/26 11:50:11;;;;;;;17.97;9.90;;;21.30;28.80;;;;;;5019827;28;46443;-77
2023/09/26 11:52:37;;;;;;;14.50;9.17;;;21.30;28.50;;;;;;5002411;28;46446;-78
2023/09/26 11:55:03;;;;;;;14.17;9.80;;;21.30;28.60;;;;;;5019503;28;46341;-79
2023/09/26 11:57:35;;;;;;;14.50;9.30;;;21.50;28.50;;;;;;5019367;28;46452;-80
2023/09/26 12:00:01;;;;;;;13.70;8.73;;;21.60;28.30;;;;;;5019468;28;46427;-80
2023/09/26 12:02:27;;;;;;;18.03;9.20;;;21.70;28.00;;;;;;5002705;28;46714;-79
2023/09/26 12:04:53;;;;;;;12.60;9.10;;;21.70;27.60;;;;;;5024101;28;46427;-79
2023/09/26 12:07:18;;;;;;;14.33;10.73;;;21.50;27.50;;;;;;5018930;28;46369;-78
2023/09/26 12:09:44;;;;;;;16.97;11.10;;;21.60;27.50;;;;;;5019391;28;46765;-78
2023/09/26 12:12:10;;;;;;;15.13;8.93;;;21.40;27.30;;;;;;5007162;28;46554;-78
2023/09/26 12:14:36;;;;;;;13.10;8.77;;;21.40;27.00;;;;;;5019528;28;46764;-78
2023/09/26 12:17:03;;;;;;;13.80;8.13;;;21.30;27.10;;;;;;5019868;28;46800;-78
2023/09/26 12:19:29;;;;;;;12.60;7.90;;;21.40;27.10;;;;;;5021207;28;46576;-77
2023/09/26 12:21:56;;;;;;;13.87;8.20;;;21.40;26.30;;;;;;5020790;28;46467;-78
2023/09/26 12:24:21;;;;;;;12.27;8.03;;;21.30;26.60;;;;;;5019352;28;46598;-78
2023/09/26 12:26:47;;;;;;;11.20;7.93;;;21.40;26.70;;;;;;5001858;28;48317;-78
2023/09/26 12:29:16;;;;;;;11.07;8.20;;;21.30;26.40;;;;;;5021728;28;46409;-79
2023/09/26 12:31:45;;;;;;;14.47;7.87;;;21.30;26.60;;;;;;5021468;28;46757;-80
2023/09/26 12:34:12;;;;;;;12.10;7.70;;;21.40;26.70;;;;;;5003196;28;46694;-78
2023/09/26 12:36:37;;;;;;;11.67;7.60;;;21.40;26.60;;;;;;5020647;28;46427;-78
2023/09/26 12:39:03;;;;;;;16.00;7.37;;;21.50;26.50;;;;;;5019674;28;46412;-78